This is the latest recevied weather packets stored in our database for station/object K7PMV-13. If no packets are shown the sender has not sent any weather packets the latest 1 day(s).
| Time | Temp. | Humidity | Pressure | Rain* | Wind** | Luminosity | Snow |
|---|---|---|---|---|---|---|---|
| 1778087264 | 22.78° C | 33% | 1013.2 hPa | 0 mm | - | 807 W/m² | - |
| 1778086308 | 22.78° C | 34% | 1013.3 hPa | 0 mm | - | 775 W/m² | - |
| 1778084370 | 21.67° C | 36% | 1013.1 hPa | 0 mm | - | 691 W/m² | - |
| 1778083419 | 21.11° C | 37% | 1013.3 hPa | 0 mm | - | 645 W/m² | - |
| 1778082783 | 20.56° C | 37% | 1013.3 hPa | 0 mm | - | 613 W/m² | - |
| 1778082142 | 19.44° C | 40% | 1013.3 hPa | 0 mm | - | 577 W/m² | - |
| 1778081195 | 18.89° C | 40% | 1013.2 hPa | 0 mm | - | 527 W/m² | - |
| 1778079236 | 16.67° C | 45% | 1013.1 hPa | 0 mm | - | 417 W/m² | - |
| 1778078577 | 16.67° C | 45% | 1013 hPa | 0 mm | - | 376 W/m² | - |
| 1778077617 | 15.56° C | 48% | 1013 hPa | 0 mm | - | 37 W/m² | - |
| 1778077235 | 15.56° C | 48% | 1012.9 hPa | 0 mm | - | 35 W/m² | - |
| 1778076920 | 15° C | 47% | 1012.9 hPa | 0 mm | - | 33 W/m² | - |
| 1778075264 | 14.44° C | 49% | 1012.5 hPa | 0 mm | - | 28 W/m² | - |
| 1778074942 | 13.89° C | 49% | 1012.4 hPa | 0 mm | - | 26 W/m² | - |
| 1778074309 | 13.89° C | 51% | 1012.4 hPa | 0 mm | - | 25 W/m² | - |
| 1778073995 | 13.33° C | 51% | 1012.4 hPa | 0 mm | - | 23 W/m² | - |
| 1778072079 | 12.78° C | 52% | 1011.9 hPa | 0 mm | - | 12 W/m² | - |
| 1778071420 | 12.78° C | 52% | 1011.8 hPa | 0 mm | - | 7 W/m² | - |
| 1778070774 | 12.78° C | 53% | 1011.6 hPa | 0 mm | - | 0 W/m² | - |
| 1778070456 | 12.78° C | 54% | 1011.6 hPa | 0 mm | - | 0 W/m² | - |
| 1778069826 | 12.22° C | 58% | 1011.5 hPa | 0 mm | - | 0 W/m² | - |
| 1778068234 | 12.78° C | 57% | 1011.4 hPa | 0 mm | - | 0 W/m² | - |
| 1778067605 | 12.78° C | 56% | 1011.3 hPa | 0 mm | - | 0 W/m² | - |
| 1778067290 | 12.78° C | 54% | 1011.2 hPa | 0 mm | - | 0 W/m² | - |
| 1778066975 | 12.78° C | 54% | 1011.2 hPa | 0 mm | - | 0 W/m² | - |
* Rain latest hour (hover to see other rain measurements)
** Current wind speed in m/s (hover to see current wind gust speed)